Time;durP1;ratioP1;P1;durP2;ratioP2;P2;SDS_P1;SDS_P2;PMS_P1;PMS_P2;Temp;Humidity;BMP_temperature;BMP_pressure;BME280_temperature;BME280_humidity;BME280_pressure;Samples;Min_cycle;Max_cycle;Signal;HPM_P1;HPM_P2
2021/01/21 00:01:47;;;;;;;0.30;0.20;;;;;;;3.80;91.98;96847.78;4902929;29;20035;-80
2021/01/21 00:04:15;;;;;;;0.25;0.10;;;;;;;3.77;92.36;96860.00;4877873;29;20042;-83
2021/01/21 00:06:44;;;;;;;0.00;0.00;;;;;;;3.83;92.10;96855.25;4902560;29;20024;-81
2021/01/21 00:09:09;;;;;;;0.10;0.10;;;;;;;3.78;92.44;96866.19;4888196;29;20042;-80
2021/01/21 00:11:35;;;;;;;0.00;0.00;;;;;;;3.90;92.64;96890.75;4880708;29;20118;-82
2021/01/21 00:14:03;;;;;;;0.28;0.03;;;;;;;3.94;92.21;96910.66;4900824;29;20040;-81
2021/01/21 00:16:33;;;;;;;0.32;0.10;;;;;;;3.92;92.25;96912.84;4914006;29;20051;-81
2021/01/21 00:18:59;;;;;;;0.00;0.00;;;;;;;3.67;91.82;96888.06;4894900;29;20036;-82
2021/01/21 00:21:26;;;;;;;0.00;0.00;;;;;;;3.92;91.97;96941.81;4881981;29;20092;-81
2021/01/21 00:23:52;;;;;;;0.00;0.00;;;;;;;3.81;92.39;96928.53;4864668;29;20096;-80
2021/01/21 00:26:17;;;;;;;0.20;0.20;;;;;;;3.74;92.15;96930.06;4905481;29;20028;-78
2021/01/21 00:28:43;;;;;;;0.10;0.10;;;;;;;3.82;92.23;96942.84;4892947;29;20471;-79
2021/01/21 00:31:08;;;;;;;1.67;0.00;;;;;;;3.78;92.25;96947.25;4902909;29;20047;-80
2021/01/21 00:33:34;;;;;;;0.10;0.10;;;;;;;3.68;92.32;96942.91;4881386;29;20375;-79
2021/01/21 00:35:59;;;;;;;0.10;0.10;;;;;;;3.65;92.34;96954.31;4896582;29;20035;-79
2021/01/21 00:38:30;;;;;;;0.08;0.08;;;;;;;3.66;92.30;96956.72;4886890;29;20034;-83
2021/01/21 00:40:56;;;;;;;1.60;0.77;;;;;;;3.64;92.33;96961.63;4902202;29;20401;-84
2021/01/21 00:43:23;;;;;;;0.40;0.40;;;;;;;3.50;91.96;96963.56;4880747;29;20115;-83
2021/01/21 00:45:51;;;;;;;0.40;0.40;;;;;;;3.54;91.61;96986.19;4904975;29;21260;-83
2021/01/21 00:48:17;;;;;;;0.50;0.50;;;;;;;3.29;92.08;96969.41;4896458;29;20060;-84
2021/01/21 00:50:43;;;;;;;1.85;0.60;;;;;;;3.34;91.72;96983.91;4903200;29;20042;-83
2021/01/21 00:53:08;;;;;;;0.50;0.50;;;;;;;3.40;92.45;96996.22;4902260;29;20455;-83
2021/01/21 00:55:33;;;;;;;6.07;0.77;;;;;;;3.49;92.05;97014.09;4904662;29;20095;-84
2021/01/21 00:57:59;;;;;;;0.47;0.47;;;;;;;3.44;91.94;97013.41;4913756;29;20028;-83
2021/01/21 01:00:32;;;;;;;1.17;0.30;;;;;;;3.32;91.65;97030.94;4902710;29;20032;-82
2021/01/21 01:02:57;;;;;;;0.52;0.43;;;;;;;3.31;91.51;97032.03;4915698;29;20028;-82
2021/01/21 01:05:23;;;;;;;0.65;0.65;;;;;;;3.14;91.33;97012.97;4895797;29;20462;-81
2021/01/21 01:07:48;;;;;;;2.78;0.60;;;;;;;3.20;91.53;97044.16;4887786;29;20032;-81
2021/01/21 01:10:14;;;;;;;0.45;0.38;;;;;;;3.06;91.75;97032.53;4914792;29;20024;-81
2021/01/21 01:12:39;;;;;;;0.43;0.43;;;;;;;2.89;92.22;97020.44;4905501;29;20032;-82
2021/01/21 01:15:09;;;;;;;0.40;0.40;;;;;;;3.07;91.99;97082.75;4892855;29;20024;-82
2021/01/21 01:17:35;;;;;;;0.43;0.43;;;;;;;2.96;92.21;97068.63;4921257;29;20040;-82
2021/01/21 01:20:01;;;;;;;0.50;0.50;;;;;;;2.85;92.08;97056.41;4929529;29;20029;-81
2021/01/21 01:22:26;;;;;;;1.05;0.60;;;;;;;2.82;92.20;97057.81;4912253;29;20040;-80
2021/01/21 01:24:59;;;;;;;0.60;0.60;;;;;;;3.06;92.06;97091.94;4897523;29;20032;-79
2021/01/21 01:27:27;;;;;;;0.30;0.30;;;;;;;3.01;92.50;97075.81;4910453;29;20502;-82
2021/01/21 01:29:53;;;;;;;1.10;0.60;;;;;;;2.99;92.63;97068.03;4924385;29;20119;-82
2021/01/21 01:32:18;;;;;;;2.35;0.60;;;;;;;3.15;92.09;97109.03;4932970;29;20031;-86
2021/01/21 01:34:49;;;;;;;0.88;0.77;;;;;;;3.06;92.60;97092.72;4909903;29;20036;-85
2021/01/21 01:37:14;;;;;;;0.65;0.65;;;;;;;2.92;91.86;97090.03;4903568;29;20099;-83
2021/01/21 01:39:42;;;;;;;2.38;0.52;;;;;;;3.00;91.44;97122.84;4916388;29;20050;-82
2021/01/21 01:42:11;;;;;;;0.90;0.70;;;;;;;2.91;92.01;97120.00;4905444;29;20063;-78
2021/01/21 01:44:37;;;;;;;0.50;0.50;;;;;;;2.97;91.74;97146.59;4902983;29;20028;-78
2021/01/21 01:47:03;;;;;;;1.65;0.52;;;;;;;2.85;91.94;97129.28;4911497;29;20039;-78
2021/01/21 01:49:28;;;;;;;1.17;1.08;;;;;;;2.94;92.39;97138.31;4896139;29;20052;-77
2021/01/21 01:51:54;;;;;;;0.80;0.80;;;;;;;2.88;91.88;97140.28;4910475;29;20169;-77
2021/01/21 01:54:27;;;;;;;1.13;0.80;;;;;;;2.88;91.77;97151.09;4894413;29;20073;-80
2021/01/21 01:56:53;;;;;;;2.78;0.63;;;;;;;2.87;91.92;97165.66;4896253;29;20043;-80
2021/01/21 01:59:22;;;;;;;1.77;0.73;;;;;;;2.84;91.92;97163.56;4912834;29;20024;-79
2021/01/21 02:01:49;;;;;;;0.65;0.65;;;;;;;2.87;91.63;97173.78;4907048;29;20032;-79
2021/01/21 02:04:15;;;;;;;0.73;0.73;;;;;;;2.83;91.75;97183.53;4905202;29;20028;-80
2021/01/21 02:06:40;;;;;;;1.27;0.50;;;;;;;2.85;91.91;97194.88;4919261;29;20028;-79
2021/01/21 02:09:06;;;;;;;0.82;0.50;;;;;;;2.85;91.55;97199.44;4903716;29;20035;-78
2021/01/21 02:12:04;;;;;;;0.30;0.30;;;;;;;2.90;91.91;97216.34;4878411;29;20044;-80
2021/01/21 02:14:58;;;;;;;0.35;0.35;;;;;;;2.87;91.87;97227.75;4906186;29;20091;-79
2021/01/21 02:17:32;;;;;;;0.60;0.60;;;;;;;2.82;91.96;97230.53;4895253;29;20478;-78
2021/01/21 02:20:24;;;;;;;1.05;0.60;;;;;;;2.90;92.02;97232.56;4903349;29;20040;-80
2021/01/21 02:23:16;;;;;;;0.40;0.40;;;;;;;2.83;92.01;97234.81;4908395;29;20463;-80
2021/01/21 02:25:59;;;;;;;0.47;0.47;;;;;;;2.87;92.28;97238.53;4908028;29;20031;-80
2021/01/21 02:28:49;;;;;;;0.50;0.50;;;;;;;2.77;91.88;97241.41;4909955;29;20502;-80
2021/01/21 02:31:23;;;;;;;0.20;0.20;;;;;;;2.80;91.74;97246.22;4917425;29;20455;-80
2021/01/21 02:33:59;;;;;;;0.90;0.20;;;;;;;2.82;91.69;97252.13;4917047;29;20032;-80
2021/01/21 02:36:30;;;;;;;;;;;;;;;2.81;91.50;97255.91;4916609;29;20023;-79
2021/01/21 02:38:58;;;;;;;0.43;0.32;;;;;;;2.61;91.25;97241.63;4907523;29;19915;-80
2021/01/21 02:41:24;;;;;;;5.18;0.45;;;;;;;2.79;92.29;97268.91;4901435;29;20364;-80
2021/01/21 02:43:55;;;;;;;0.57;0.30;;;;;;;2.81;91.91;97272.09;4892867;29;20043;-80
2021/01/21 02:46:22;;;;;;;0.20;0.20;;;;;;;2.81;92.05;97272.09;4906943;29;20062;-78
2021/01/21 02:48:55;;;;;;;0.25;0.25;;;;;;;2.78;92.01;97264.59;4914996;29;20095;-78
2021/01/21 02:51:30;;;;;;;0.30;0.30;;;;;;;2.76;91.89;97280.25;4912516;29;20754;-79
2021/01/21 02:54:19;;;;;;;1.73;0.38;;;;;;;2.70;92.10;97262.56;4891607;29;20039;-80
2021/01/21 02:56:47;;;;;;;0.10;0.10;;;;;;;2.76;91.73;97288.34;4914229;29;20473;-80
2021/01/21 02:59:15;;;;;;;0.30;0.30;;;;;;;2.71;91.80;97283.06;4914264;29;20084;-79
2021/01/21 03:01:42;;;;;;;0.22;0.22;;;;;;;2.75;91.63;97284.06;4917981;29;20024;-80
2021/01/21 03:04:09;;;;;;;1.27;0.20;;;;;;;2.85;91.78;97297.41;4891636;29;20064;-79
2021/01/21 03:06:36;;;;;;;2.17;0.25;;;;;;;2.85;92.02;97294.72;4908609;29;20027;-80
2021/01/21 03:09:03;;;;;;;0.30;0.30;;;;;;;2.75;91.92;97279.47;4888795;29;20044;-80
2021/01/21 03:11:29;;;;;;;0.90;0.28;;;;;;;2.74;91.67;97288.66;4920435;29;20039;-79
2021/01/21 03:13:57;;;;;;;0.35;0.20;;;;;;;2.89;91.20;97316.53;4882994;29;20040;-80
2021/01/21 03:16:22;;;;;;;0.38;0.30;;;;;;;2.79;92.14;97296.69;4911841;29;20035;-79
2021/01/21 03:18:51;;;;;;;0.93;0.25;;;;;;;2.90;92.08;97318.94;4908433;29;20060;-81
2021/01/21 03:21:20;;;;;;;1.27;0.38;;;;;;;2.91;91.32;97323.25;4914553;29;20107;-80
2021/01/21 03:23:46;;;;;;;0.45;0.30;;;;;;;2.76;91.90;97301.84;4907280;29;20024;-78
2021/01/21 03:26:19;;;;;;;3.50;0.15;;;;;;;2.78;91.96;97313.19;4906481;29;20076;-79
2021/01/21 03:28:52;;;;;;;0.20;0.20;;;;;;;2.90;91.36;97337.81;4879754;29;20386;-80
2021/01/21 03:31:19;;;;;;;0.10;0.10;;;;;;;2.89;91.26;97340.81;4882598;29;20067;-80
2021/01/21 03:33:45;;;;;;;0.32;0.10;;;;;;;2.86;91.91;97334.13;4903264;29;20058;-79
2021/01/21 03:36:10;;;;;;;0.10;0.10;;;;;;;2.86;91.56;97334.13;4899042;29;20450;-79
2021/01/21 03:38:36;;;;;;;0.20;0.10;;;;;;;2.79;91.58;97333.69;4883303;29;20047;-80
2021/01/21 03:41:01;;;;;;;0.08;0.08;;;;;;;2.74;91.72;97328.34;4902115;29;20028;-80
2021/01/21 03:43:27;;;;;;;0.10;0.10;;;;;;;2.72;91.52;97342.13;4899955;29;20047;-80
2021/01/21 03:45:52;;;;;;;0.10;0.10;;;;;;;2.83;91.97;97339.28;4918269;29;20107;-78
2021/01/21 03:48:18;;;;;;;0.32;0.20;;;;;;;2.76;92.04;97336.94;4896581;29;20040;-78
2021/01/21 03:50:45;;;;;;;0.82;0.20;;;;;;;2.87;91.68;97362.69;4895934;29;20806;-78
2021/01/21 03:53:13;;;;;;;0.45;0.20;;;;;;;2.76;91.52;97339.63;4913687;29;20025;-78
2021/01/21 03:55:38;;;;;;;0.80;0.15;;;;;;;2.78;91.58;97349.03;4910451;29;20063;-80
2021/01/21 03:58:04;;;;;;;1.58;0.20;;;;;;;2.85;91.75;97353.28;4933757;29;20103;-79
2021/01/21 04:00:29;;;;;;;0.32;0.13;;;;;;;2.90;91.92;97348.63;4928027;29;20439;-79
2021/01/21 04:02:57;;;;;;;0.75;0.17;;;;;;;2.91;92.06;97358.31;4930448;29;20028;-80
2021/01/21 04:05:22;;;;;;;0.10;0.10;;;;;;;2.97;91.58;97362.56;4911458;29;20024;-79
2021/01/21 04:07:48;;;;;;;0.43;0.20;;;;;;;2.97;92.15;97356.38;4891024;29;20039;-80
2021/01/21 04:10:13;;;;;;;0.22;0.13;;;;;;;3.01;91.45;97364.66;4903031;29;20039;-78
2021/01/21 04:12:38;;;;;;;0.32;0.20;;;;;;;3.19;91.69;97380.06;4906413;29;20036;-80
2021/01/21 04:15:05;;;;;;;0.22;0.10;;;;;;;3.11;92.20;97356.44;4905868;29;20100;-81
2021/01/21 04:17:30;;;;;;;0.38;0.30;;;;;;;3.06;91.62;97380.81;4916097;29;20118;-82
2021/01/21 04:19:56;;;;;;;0.10;0.10;;;;;;;3.19;91.96;97385.47;4907158;29;20036;-81
2021/01/21 04:22:24;;;;;;;0.30;0.10;;;;;;;3.11;91.72;97356.44;4920364;29;20020;-81
2021/01/21 04:24:49;;;;;;;0.25;0.10;;;;;;;3.11;91.42;97361.81;4899810;29;20375;-79
2021/01/21 04:27:17;;;;;;;0.20;0.10;;;;;;;3.23;91.71;97389.22;4902020;29;20095;-80
2021/01/21 04:29:43;;;;;;;0.65;0.10;;;;;;;3.23;91.91;97364.91;4897941;29;20084;-79
2021/01/21 04:32:08;;;;;;;0.30;0.10;;;;;;;3.17;91.71;97373.34;4895228;29;20029;-80
2021/01/21 04:34:34;;;;;;;2.72;0.03;;;;;;;3.32;91.66;97462.28;4886954;29;20468;-79
2021/01/21 04:36:59;;;;;;;2.58;0.28;;;;;;;3.22;91.94;97387.59;4886891;29;20040;-80
2021/01/21 04:39:25;;;;;;;0.77;0.20;;;;;;;3.23;92.14;97388.41;4909963;29;20024;-80
2021/01/21 04:41:52;;;;;;;0.82;0.10;;;;;;;3.27;91.35;97408.31;4900912;29;20027;-79
2021/01/21 04:44:18;;;;;;;0.28;0.22;;;;;;;3.26;91.71;97423.72;4916341;29;20119;-79
2021/01/21 04:46:45;;;;;;;2.10;0.38;;;;;;;3.26;91.98;97418.31;4882340;29;20452;-79
2021/01/21 04:49:16;;;;;;;0.40;0.20;;;;;;;3.32;92.17;97411.75;4898697;29;20135;-80
2021/01/21 04:51:44;;;;;;;0.10;0.10;;;;;;;3.39;91.79;97421.38;4890094;29;20490;-78
2021/01/21 04:54:13;;;;;;;0.85;0.10;;;;;;;3.51;91.74;97445.28;4905073;29;20083;-80
2021/01/21 04:56:45;;;;;;;0.35;0.28;;;;;;;3.57;91.92;97433.28;4916818;29;20080;-79
2021/01/21 04:59:16;;;;;;;0.10;0.10;;;;;;;3.63;91.98;97438.31;4917185;29;20103;-79
2021/01/21 05:01:42;;;;;;;2.40;0.15;;;;;;;3.44;91.87;97411.31;4915058;29;20024;-78
2021/01/21 05:04:07;;;;;;;0.43;0.20;;;;;;;3.57;91.85;97444.91;4914876;29;20043;-79
2021/01/21 05:06:33;;;;;;;0.98;0.50;;;;;;;3.61;91.39;97448.63;4878926;29;20436;-79
2021/01/21 05:09:01;;;;;;;1.05;0.22;;;;;;;3.54;91.69;97423.88;4916907;29;20100;-79
2021/01/21 05:11:27;;;;;;;0.60;0.30;;;;;;;3.75;92.04;97458.69;4905311;29;20028;-80
2021/01/21 05:13:59;;;;;;;0.38;0.20;;;;;;;3.70;91.81;97432.53;4920657;29;20517;-79
2021/01/21 05:16:28;;;;;;;1.60;0.10;;;;;;;3.91;92.20;97443.81;4890053;29;20076;-80
2021/01/21 05:18:53;;;;;;;0.05;0.05;;;;;;;3.95;92.04;97434.03;4894762;29;20825;-80
2021/01/21 05:21:21;;;;;;;1.98;0.38;;;;;;;4.01;92.17;97435.53;4913985;29;20036;-79
2021/01/21 05:23:47;;;;;;;0.20;0.10;;;;;;;4.10;91.87;97451.91;4904871;29;20489;-79
2021/01/21 05:26:12;;;;;;;0.38;0.17;;;;;;;3.87;91.16;97418.50;4917918;29;20024;-80
2021/01/21 05:28:39;;;;;;;1.33;0.43;;;;;;;3.99;91.54;97432.34;4899528;29;20512;-81
2021/01/21 05:31:04;;;;;;;1.30;0.13;;;;;;;3.90;91.22;97436.84;4897295;29;20039;-81
2021/01/21 05:33:30;;;;;;;0.70;0.17;;;;;;;4.00;91.24;97435.84;4900392;29;20028;-80
2021/01/21 05:35:57;;;;;;;0.52;0.20;;;;;;;3.95;91.29;97434.03;4902616;29;20028;-80
2021/01/21 05:38:22;;;;;;;0.55;0.03;;;;;;;3.93;91.16;97436.25;4902709;29;20047;-79
2021/01/21 05:40:48;;;;;;;0.75;0.05;;;;;;;3.86;91.42;97441.22;4906588;29;20028;-80
2021/01/21 05:43:16;;;;;;;0.22;0.10;;;;;;;3.91;91.08;97445.75;4904545;29;20064;-80
2021/01/21 05:45:45;;;;;;;0.98;0.17;;;;;;;3.80;91.46;97437.00;4911375;29;22099;-80
2021/01/21 05:48:13;;;;;;;0.38;0.10;;;;;;;3.85;91.52;97420.69;4927283;29;20027;-80
2021/01/21 05:50:39;;;;;;;0.25;0.10;;;;;;;3.82;91.37;97424.78;4925921;29;20028;-80
2021/01/21 05:53:08;;;;;;;1.45;0.38;;;;;;;3.82;91.52;97435.59;4909452;29;20048;-80
2021/01/21 05:55:38;;;;;;;0.32;0.13;;;;;;;3.89;91.34;97486.59;4901365;29;20044;-80
2021/01/21 05:58:09;;;;;;;0.30;0.08;;;;;;;3.90;91.72;97436.84;4910568;29;20062;-79
2021/01/21 06:00:36;;;;;;;0.65;0.10;;;;;;;4.02;91.66;97464.19;4909652;29;20034;-79
2021/01/21 06:03:09;;;;;;;0.60;0.20;;;;;;;3.95;91.19;97465.69;4900313;29;20559;-78
2021/01/21 06:05:35;;;;;;;1.10;0.17;;;;;;;3.89;92.04;97448.75;4869060;29;20041;-78
2021/01/21 06:08:02;;;;;;;1.33;0.10;;;;;;;3.96;91.00;97461.91;4885491;29;20114;-78
2021/01/21 06:10:28;;;;;;;1.10;0.10;;;;;;;3.87;91.42;97452.81;4917835;29;20027;-77
2021/01/21 06:12:54;;;;;;;1.33;0.10;;;;;;;3.83;91.74;97458.03;4896463;29;20056;-78
2021/01/21 06:15:20;;;;;;;0.10;0.00;;;;;;;3.88;91.41;97457.94;4894235;29;20040;-77
2021/01/21 06:17:48;;;;;;;0.05;0.05;;;;;;;3.92;91.76;97467.06;4867043;29;20051;-78
2021/01/21 06:20:14;;;;;;;0.85;0.10;;;;;;;3.98;92.19;97460.47;4906139;29;20566;-77
2021/01/21 06:22:45;;;;;;;2.63;0.25;;;;;;;3.89;91.47;97473.06;4910362;29;20076;-78
2021/01/21 06:25:13;;;;;;;1.77;0.10;;;;;;;3.98;91.67;97465.09;4892609;29;20039;-79
2021/01/21 06:27:40;;;;;;;0.50;0.17;;;;;;;3.85;91.59;97450.41;4920515;29;20052;-80
2021/01/21 06:30:12;;;;;;;0.55;0.10;;;;;;;3.91;91.29;97453.84;4919820;29;20043;-75
2021/01/21 06:32:56;;;;;;;0.20;0.15;;;;;;;3.93;91.45;97452.47;4913636;29;20079;-75
2021/01/21 06:35:37;;;;;;;0.32;0.10;;;;;;;3.76;91.31;97442.19;4912748;29;20037;-79
2021/01/21 06:38:07;;;;;;;1.33;0.25;;;;;;;3.80;91.31;97434.28;4904944;29;20056;-79
2021/01/21 06:40:35;;;;;;;5.32;0.50;;;;;;;3.98;91.10;97475.91;4892269;29;20039;-78
2021/01/21 06:43:44;;;;;;;0.35;0.10;;;;;;;3.94;91.24;97447.84;4914823;29;20111;-78
2021/01/21 06:46:14;;;;;;;0.32;0.13;;;;;;;3.90;91.01;97463.03;4908892;29;20119;-79
2021/01/21 06:48:41;;;;;;;0.52;0.10;;;;;;;4.01;90.97;97478.81;4897349;29;20051;-77
2021/01/21 06:51:12;;;;;;;4.15;1.48;;;;;;;3.97;90.93;97475.13;4905059;29;20052;-77
2021/01/21 06:53:45;;;;;;;6.63;0.40;;;;;;;3.93;90.61;97473.28;4900307;29;20080;-77
2021/01/21 06:56:12;;;;;;;7.22;0.40;;;;;;;4.02;91.03;97488.53;4907115;29;20024;-76
2021/01/21 06:58:56;;;;;;;1.95;0.52;;;;;;;4.04;90.63;97498.25;4896883;29;20203;-76
2021/01/21 07:01:30;;;;;;;1.38;0.20;;;;;;;4.04;90.81;97485.53;4909825;29;20486;-75
2021/01/21 07:04:18;;;;;;;3.30;0.30;;;;;;;3.99;90.71;97482.94;4908229;29;20028;-77
2021/01/21 07:06:52;;;;;;;4.50;0.43;;;;;;;4.07;90.75;97512.00;4914575;29;20043;-76
2021/01/21 07:09:38;;;;;;;1.80;0.28;;;;;;;4.08;90.90;97493.88;4900694;29;20032;-77
2021/01/21 07:12:04;;;;;;;1.13;0.20;;;;;;;3.98;90.46;97479.41;4892329;29;20024;-78
2021/01/21 07:14:37;;;;;;;0.28;0.17;;;;;;;4.07;90.64;97486.84;4911916;29;20111;-78
2021/01/21 07:17:05;;;;;;;1.20;0.38;;;;;;;4.09;90.78;97490.06;4901569;29;20025;-74
2021/01/21 07:19:44;;;;;;;5.00;0.50;;;;;;;4.05;90.94;97492.56;4907224;29;20424;-74
2021/01/21 07:22:20;;;;;;;3.45;0.35;;;;;;;4.15;91.26;97497.81;4898164;29;20020;-75
2021/01/21 07:25:12;;;;;;;3.70;0.32;;;;;;;4.21;91.01;97487.72;4905699;29;20036;-73
2021/01/21 07:27:40;;;;;;;0.40;0.10;;;;;;;4.26;91.03;97500.34;4878833;29;20045;-79
2021/01/21 07:30:35;;;;;;;0.80;0.28;;;;;;;4.29;91.09;97495.16;4904994;29;20420;-79
2021/01/21 07:33:50;;;;;;;2.22;0.25;;;;;;;4.35;90.75;97502.06;4889021;29;20040;-79
2021/01/21 07:36:49;;;;;;;3.60;0.50;;;;;;;4.45;90.78;97527.34;4895593;29;20048;-80
2021/01/21 07:39:48;;;;;;;6.13;0.45;;;;;;;4.41;91.22;97520.91;4909749;29;20027;-79
2021/01/21 07:42:23;;;;;;;3.95;0.40;;;;;;;4.49;90.96;97520.25;4904676;29;20024;-79
2021/01/21 07:44:57;;;;;;;6.75;0.85;;;;;;;4.39;90.67;97542.84;4905461;29;20032;-78
2021/01/21 07:47:31;;;;;;;4.68;0.60;;;;;;;4.60;90.55;97516.28;4912523;29;20028;-80
2021/01/21 07:50:36;;;;;;;4.40;0.60;;;;;;;4.68;91.18;97512.84;4898982;29;20534;-80
2021/01/21 07:53:04;;;;;;;7.13;0.30;;;;;;;4.59;90.89;97489.50;4891635;29;20032;-79
2021/01/21 07:55:35;;;;;;;8.30;1.27;;;;;;;4.67;91.36;97497.72;4893938;29;20036;-80
2021/01/21 07:58:35;;;;;;;5.95;0.68;;;;;;;4.89;90.90;97518.72;4911384;29;20035;-78
2021/01/21 08:01:07;;;;;;;8.80;0.50;;;;;;;4.85;90.70;97504.16;4914712;29;20039;-78
2021/01/21 08:03:47;;;;;;;1.55;0.43;;;;;;;4.96;90.53;97531.84;4903999;29;20028;-78
2021/01/21 08:06:14;;;;;;;1.77;0.13;;;;;;;4.99;90.60;97541.28;4904665;29;20035;-78
2021/01/21 08:08:42;;;;;;;10.10;0.60;;;;;;;4.92;90.23;97502.94;4912944;29;20462;-78
2021/01/21 08:11:11;;;;;;;11.45;0.63;;;;;;;4.92;90.37;97508.38;4914240;29;20036;-74
2021/01/21 08:13:37;;;;;;;2.55;0.55;;;;;;;4.95;90.47;97524.84;4902524;29;20515;-75
2021/01/21 08:16:13;;;;;;;;;;;;;;;;;;;;;
2021/01/21 08:18:39;;;;;;;4.63;0.30;;;;;;;5.10;89.71;97531.06;4895274;29;20513;-75
2021/01/21 08:21:28;;;;;;;3.70;0.50;;;;;;;4.92;89.53;97509.19;4897626;29;20115;-79
2021/01/21 08:23:58;;;;;;;5.40;0.50;;;;;;;5.14;89.57;97559.13;4910057;29;20091;-76
2021/01/21 08:26:29;;;;;;;5.57;0.50;;;;;;;5.06;88.97;97526.22;4890749;29;20028;-76
2021/01/21 08:28:55;;;;;;;1.95;1.05;;;;;;;5.21;89.51;97559.53;4900498;29;20096;-76
2021/01/21 08:31:35;;;;;;;4.53;0.73;;;;;;;5.16;88.88;97529.84;4916735;29;20093;-76
2021/01/21 08:34:02;;;;;;;4.10;0.40;;;;;;;5.18;89.36;97538.47;4898871;29;20028;-76
2021/01/21 08:36:30;;;;;;;5.78;0.60;;;;;;;5.12;88.91;97534.25;4889909;29;20136;-77
2021/01/21 08:38:56;;;;;;;4.63;0.60;;;;;;;5.26;89.07;97559.47;4905147;29;20024;-78
2021/01/21 08:41:23;;;;;;;2.97;0.60;;;;;;;5.18;88.92;97543.88;4901354;29;20028;-78
2021/01/21 08:43:49;;;;;;;0.95;0.10;;;;;;;5.13;89.40;97541.28;4915143;29;20035;-79
2021/01/21 08:46:17;;;;;;;1.48;0.45;;;;;;;5.22;89.33;97547.59;4907225;29;20176;-77
2021/01/21 08:48:43;;;;;;;1.00;0.05;;;;;;;5.19;89.27;97557.13;4901491;29;20028;-77
2021/01/21 08:51:55;;;;;;;;;;;;;;;;;;;;;
2021/01/21 08:54:24;;;;;;;0.98;0.30;;;;;;;5.31;89.00;97570.19;4916652;29;20032;-78
2021/01/21 08:57:09;;;;;;;1.60;0.30;;;;;;;5.41;88.51;97563.75;4915098;29;20116;-77
2021/01/21 08:59:35;;;;;;;6.53;0.38;;;;;;;5.48;88.66;97579.63;4898678;29;20083;-77
2021/01/21 09:02:04;;;;;;;1.80;0.10;;;;;;;5.54;88.55;97590.03;4914569;29;20032;-74
2021/01/21 09:04:48;;;;;;;3.50;0.20;;;;;;;5.32;88.86;97560.94;4915900;29;20036;-82
2021/01/21 09:07:43;;;;;;;1.25;0.75;;;;;;;5.35;87.77;97571.19;4907223;29;20055;-84
2021/01/21 09:10:12;;;;;;;8.70;0.20;;;;;;;5.06;88.44;97542.47;4923104;29;20036;-81
2021/01/21 09:15:58;;;;;;;0.35;0.10;;;;;;;5.16;88.31;97557.75;4889119;29;20048;-80
2021/01/21 09:19:19;;;;;;;13.05;0.55;;;;;;;5.02;89.04;97536.06;4919104;29;20024;-79
2021/01/21 09:21:38;;;;;;;0.75;0.22;;;;;;;5.17;88.91;97569.38;4915417;29;20032;-80
2021/01/21 09:24:10;;;;;;;1.15;0.50;;;;;;;5.28;88.23;97591.66;4902036;29;20039;-79
2021/01/21 09:27:46;;;;;;;0.10;0.10;;;;;;;5.33;88.82;97583.41;4918177;29;20763;-81
2021/01/21 09:30:12;;;;;;;1.17;0.95;;;;;;;5.23;88.64;97587.16;4920643;29;20032;-79
2021/01/21 09:32:50;;;;;;;0.38;0.20;;;;;;;5.36;89.18;97589.06;4903078;29;20040;-78
2021/01/21 09:35:22;;;;;;;0.22;0.22;;;;;;;5.55;88.90;97601.72;4918664;29;20047;-80
2021/01/21 09:38:14;;;;;;;2.30;0.30;;;;;;;5.68;88.33;97587.34;4919235;29;20040;-80
2021/01/21 09:40:42;;;;;;;3.05;0.65;;;;;;;5.93;88.20;97620.44;4924092;29;20049;-81
2021/01/21 09:43:10;;;;;;;0.52;0.10;;;;;;;5.88;88.24;97579.88;4918520;29;20502;-80
2021/01/21 09:45:36;;;;;;;1.67;0.13;;;;;;;6.03;88.05;97557.88;4917511;29;20034;-79
2021/01/21 09:48:02;;;;;;;1.45;0.20;;;;;;;6.57;88.35;97598.69;4916972;29;20436;-80
2021/01/21 10:29:03;;;;;;;5.90;0.82;;;;;;;7.09;85.39;97562.84;4795487;29;20109;-77
2021/01/21 10:36:14;;;;;;;;;;;;;;;;;;;;;
2021/01/21 10:38:44;;;;;;;11.10;0.70;;;;;;;7.46;86.65;97596.09;4788351;29;20070;-76
2021/01/21 10:44:45;;;;;;;11.93;0.90;;;;;;;7.79;85.05;97549.44;4793479;29;20046;-78
2021/01/21 10:47:20;;;;;;;1.80;0.30;;;;;;;7.95;85.22;97546.28;4784146;29;20116;-76
2021/01/21 10:49:51;;;;;;;12.73;1.17;;;;;;;7.94;83.13;97569.94;4819416;29;20041;-74
2021/01/21 10:52:19;;;;;;;4.15;0.20;;;;;;;7.66;82.84;97539.50;4819074;29;20034;-73
2021/01/21 10:54:46;;;;;;;6.35;0.60;;;;;;;7.82;84.13;97576.03;4821065;29;20128;-73
2021/01/21 10:57:17;;;;;;;5.75;0.77;;;;;;;8.00;84.31;97590.47;4891300;29;20040;-73
2021/01/21 10:59:50;;;;;;;7.85;0.52;;;;;;;8.20;83.11;97569.19;4899349;29;20017;-74
2021/01/21 11:02:42;;;;;;;9.50;2.08;;;;;;;8.49;80.48;97544.03;4907076;29;20012;-76
2021/01/21 11:05:35;;;;;;;12.18;1.27;;;;;;;8.77;79.32;97576.38;4913330;29;20032;-78
2021/01/21 11:08:24;;;;;;;;;;;;;;;;;;;;;
2021/01/21 11:28:48;;;;;;;8.23;0.73;;;;;;;11.07;78.58;97564.44;4844343;29;20044;-82
2021/01/21 11:31:17;;;;;;;6.13;1.05;;;;;;;11.33;76.30;97532.13;4911493;29;20036;-79
2021/01/21 11:34:14;;;;;;;2.58;0.70;;;;;;;11.58;74.97;97564.97;4907693;29;20131;-82
2021/01/21 11:40:03;;;;;;;1.13;0.38;;;;;;;10.32;74.28;97538.78;4908057;29;20095;-81
2021/01/21 11:42:41;;;;;;;;;;;;;;;;;;;;;
2021/01/21 11:48:13;;;;;;;3.45;0.50;;;;;;;9.93;75.92;97538.94;4891271;29;20579;-82
2021/01/21 11:50:39;;;;;;;5.80;1.10;;;;;;;9.83;77.69;97549.44;4897491;29;20096;-78
2021/01/21 11:53:26;;;;;;;1.30;0.63;;;;;;;9.63;77.76;97513.63;4901380;29;20108;-81
2021/01/21 11:55:51;;;;;;;10.10;1.23;;;;;;;9.73;78.90;97561.56;4886670;29;20036;-78
2021/01/21 11:58:17;;;;;;;2.55;0.65;;;;;;;9.53;78.80;97522.97;4869340;29;20053;-76
2021/01/21 12:01:15;;;;;;;3.17;0.63;;;;;;;9.74;78.70;97547.59;4898857;29;20029;-77
2021/01/21 12:03:41;;;;;;;6.53;0.68;;;;;;;9.50;77.17;97548.19;4901280;29;20040;-77
2021/01/21 12:09:40;;;;;;;6.93;1.13;;;;;;;9.46;76.82;97525.44;4902119;29;20072;-72
2021/01/21 12:42:33;;;;;;;2.88;0.73;;;;;;;9.82;71.69;97499.53;4787842;27;20060;-82
2021/01/21 12:46:00;;;;;;;6.13;0.80;;;;;;;9.98;72.09;97507.13;4902073;29;20032;-82
2021/01/21 12:59:56;;;;;;;5.22;0.52;;;;;;;9.91;73.08;97492.06;4903858;29;20121;-81
2021/01/21 13:02:30;;;;;;;5.60;0.77;;;;;;;9.87;75.27;97466.59;4901293;29;20366;-78
2021/01/21 13:08:17;;;;;;;11.25;1.08;;;;;;;9.61;74.11;97445.75;4903765;29;20039;-79
2021/01/21 13:10:43;;;;;;;2.83;0.52;;;;;;;9.73;75.48;97458.66;4899855;29;20055;-77
2021/01/21 13:13:08;;;;;;;4.90;2.10;;;;;;;9.58;76.24;97427.31;4902608;29;20480;-79
2021/01/21 13:18:33;;;;;;;4.03;0.68;;;;;;;9.64;74.51;97430.66;4884070;29;20387;-79
2021/01/21 13:29:09;;;;;;;;;;;;;;;;;;;;;
2021/01/21 13:36:21;;;;;;;;;;;;;;;;;;;;;
2021/01/21 13:49:17;;;;;;;7.05;1.02;;;;;;;9.12;78.78;97401.00;4732899;29;20068;-78
2021/01/21 13:54:58;;;;;;;5.00;0.88;;;;;;;9.16;75.69;97410.94;4849940;29;20044;-78
2021/01/21 13:57:25;;;;;;;2.03;0.60;;;;;;;9.06;78.30;97400.41;4889446;29;20440;-78
2021/01/21 13:59:54;;;;;;;1.05;0.28;;;;;;;9.24;77.67;97410.09;4903088;29;20044;-78
2021/01/21 14:02:44;;;;;;;7.75;0.75;;;;;;;9.18;76.66;97389.56;4904619;29;20027;-78
2021/01/21 14:05:10;;;;;;;2.58;0.77;;;;;;;9.09;76.98;97369.75;4878272;29;20028;-79
2021/01/21 14:07:38;;;;;;;4.35;0.85;;;;;;;9.17;78.31;97377.09;4893706;29;20020;-77
2021/01/21 14:28:41;;;;;;;;;;;;;;;;;;;;;
2021/01/21 15:58:05;;;;;;;1.45;0.40;;;;;;;7.90;84.40;97304.28;4899860;29;20056;-80
2021/01/21 16:00:33;;;;;;;3.22;0.43;;;;;;;7.57;84.41;97261.34;4900388;29;20040;-76
2021/01/21 16:02:58;;;;;;;2.03;0.55;;;;;;;7.81;83.91;97294.22;4907546;29;20035;-76
2021/01/21 16:05:27;;;;;;;0.70;0.38;;;;;;;7.76;84.34;97288.94;4903185;29;20024;-75
2021/01/21 16:11:27;;;;;;;2.33;1.17;;;;;;;7.56;84.56;97262.44;4875778;29;20055;-79
2021/01/21 16:14:27;;;;;;;2.17;0.85;;;;;;;7.70;83.45;97284.81;4900713;29;20039;-79
2021/01/21 16:26:57;;;;;;;;;;;;;;;;;;;;;
2021/01/21 16:30:02;;;;;;;;;;;;;;;;;;;;;
2021/01/21 16:46:46;;;;;;;3.25;0.30;;;;;;;6.87;83.59;97248.59;4820914;29;20146;-72
2021/01/21 16:52:28;;;;;;;1.10;0.35;;;;;;;6.83;84.82;97255.78;4812133;29;20069;-76
2021/01/21 16:59:21;;;;;;;0.77;0.45;;;;;;;6.97;84.54;97277.38;4785297;29;20229;-77
2021/01/21 17:29:02;;;;;;;3.75;1.75;;;;;;;6.56;84.71;97265.03;4844060;29;20036;-80
2021/01/21 17:32:20;;;;;;;3.75;1.80;;;;;;;6.53;85.09;97271.09;4850305;29;20075;-79
2021/01/21 17:35:24;;;;;;;2.65;1.45;;;;;;;6.71;86.11;97305.31;4882969;29;20041;-80
2021/01/21 17:39:02;;;;;;;1.42;1.10;;;;;;;6.68;86.66;97295.06;4892531;29;20036;-79